Enter the Airport ICAO Code

Search by Airport or City

Current Weather

LEAM | Almería Airport

Almería, Andalusia, Spain

Last Update 11 Minutes Ago

Clear Sky

Temperature of 23 ºC

Light to Moderate Winds from SouthWest

Temperature

23 ºC

Dew Point Temperature

16 ºC

Relative Humidity

64.89 %

Wind Direction

SouthWest (230º, Ranging from 190º to 260º)

Wind Velocity

17 km/h (09 kt)

Gusts

None

Visibility

No Significant Reductions

Sea Level Pressure

1014 hPa (Hectopascals)

Layers of Clouds

None

METAR LEAM 191130Z 23009KT 190V260 CAVOK 23/16 Q1014

Weather Forecast

LEAM | Almería Airport

Almería, Andalusia, Spain

Forecast valid for the next 24 Hours

From now on it is expected:

Clear Sky

Moderate Winds from SouthWest

In 3 hours it is expected the begining of 8 hours with intermittent periods of:

Moderate to Strong Winds from SouthWest with Gusts

Maximum Temperature

25 ºC in 0 Hours

Minimum Temperature

18 ºC in 17 Hours

TAF LEAM 191100Z 1912/2012 22014KT CAVOK TX25/1912Z TN18/2005Z PROB40 TEMPO 1915/1923 24020G30KT